createdAt,value
2019-04-03T00:00:00.679Z,21.77
2019-04-03T00:02:02.664Z,20.93
2019-04-03T00:04:06.081Z,21.20
2019-04-03T00:06:08.037Z,22.43
2019-04-03T00:08:09.736Z,21.63
2019-04-03T00:10:12.048Z,21.03
2019-04-03T00:12:13.970Z,23.30
2019-04-03T00:14:15.677Z,21.80
2019-04-03T00:16:17.388Z,21.27
2019-04-03T00:18:19.109Z,21.97
2019-04-03T00:20:20.921Z,21.13
2019-04-03T00:22:22.625Z,24.30
2019-04-03T00:24:24.321Z,22.30
2019-04-03T00:26:26.014Z,23.10
2019-04-03T00:28:27.777Z,20.70
2019-04-03T00:30:29.622Z,21.57
2019-04-03T00:32:31.319Z,22.13
2019-04-03T00:34:33.364Z,22.40
2019-04-03T00:36:35.068Z,21.97
2019-04-03T00:38:36.783Z,20.93
2019-04-03T00:40:38.918Z,21.57
2019-04-03T00:42:41.228Z,23.47
2019-04-03T00:44:43.096Z,24.57
2019-04-03T00:46:45.213Z,22.20
2019-04-03T00:48:46.901Z,23.07
2019-04-03T00:50:48.801Z,25.27
2019-04-03T00:52:50.611Z,23.47
2019-04-03T00:54:52.302Z,24.00
2019-04-03T00:56:56.125Z,24.10
2019-04-03T00:58:57.589Z,23.37
2019-04-03T01:00:59.445Z,24.50
2019-04-03T01:03:01.132Z,26.23
2019-04-03T01:05:03.475Z,24.97
2019-04-03T01:07:05.598Z,24.30
2019-04-03T01:09:07.613Z,25.33
2019-04-03T01:11:09.329Z,24.23
2019-04-03T01:13:11.253Z,25.10
2019-04-03T01:15:13.233Z,25.70
2019-04-03T01:17:14.938Z,26.50
2019-04-03T01:19:16.747Z,28.10
2019-04-03T01:21:18.436Z,25.67
2019-04-03T01:23:20.576Z,26.37
2019-04-03T01:25:22.271Z,25.70
2019-04-03T01:27:24.133Z,26.83
2019-04-03T01:29:26.074Z,28.43
2019-04-03T01:31:27.805Z,25.80
2019-04-03T01:33:29.496Z,25.93
2019-04-03T01:35:31.307Z,27.00
2019-04-03T01:37:33.045Z,26.10
2019-04-03T01:39:34.744Z,26.20
2019-04-03T01:41:36.449Z,24.27
2019-04-03T01:43:38.264Z,26.23
2019-04-03T01:45:39.974Z,25.33
2019-04-03T01:47:41.665Z,24.07
2019-04-03T01:49:43.365Z,26.00
2019-04-03T01:51:45.060Z,23.70
2019-04-03T01:53:46.964Z,23.90
2019-04-03T01:55:48.712Z,22.47
2019-04-03T01:57:50.611Z,25.93
2019-04-03T01:59:52.364Z,24.50
2019-04-03T02:01:54.064Z,23.77
2019-04-03T02:03:55.765Z,25.57
2019-04-03T02:05:57.470Z,23.37
2019-04-03T02:07:59.180Z,23.90
2019-04-03T02:10:00.968Z,24.00
2019-04-03T02:12:03.153Z,23.27
2019-04-03T02:14:04.874Z,23.47
2019-04-03T02:16:06.670Z,23.17
2019-04-03T02:18:08.385Z,23.57
2019-04-03T02:20:10.385Z,23.20
2019-04-03T02:22:12.217Z,25.03
2019-04-03T02:24:14.025Z,24.17
2019-04-03T02:26:15.725Z,23.53
2019-04-03T02:28:17.418Z,23.50
2019-04-03T02:30:19.371Z,24.47
2019-04-03T02:32:23.149Z,23.83
2019-04-03T02:34:24.854Z,24.10
2019-04-03T02:36:26.770Z,23.23
2019-04-03T02:38:28.780Z,24.47
2019-04-03T02:40:32.716Z,24.33
2019-04-03T02:42:34.586Z,25.17
2019-04-03T02:44:36.301Z,24.27
2019-04-03T02:46:38.415Z,24.70
2019-04-03T02:48:40.493Z,24.23
2019-04-03T02:50:46.543Z,23.77
2019-04-03T02:52:46.284Z,24.03
2019-04-03T02:54:48.811Z,24.17
2019-04-03T02:56:50.519Z,24.60
2019-04-03T02:58:53.958Z,23.63
2019-04-03T03:00:56.023Z,23.83
2019-04-03T03:02:57.731Z,25.50
2019-04-03T03:04:59.538Z,25.70
2019-04-03T03:07:04.451Z,25.40
2019-04-03T03:09:05.752Z,23.50
2019-04-03T03:11:07.781Z,24.57
2019-04-03T03:13:09.566Z,24.87
2019-04-03T03:15:12.557Z,24.73
2019-04-03T03:17:15.941Z,24.90
2019-04-03T03:19:18.615Z,23.87
2019-04-03T03:21:20.598Z,25.90
2019-04-03T03:23:24.097Z,24.03
2019-04-03T03:25:27.403Z,25.20
2019-04-03T03:27:29.331Z,24.97
2019-04-03T03:29:31.732Z,25.20
2019-04-03T03:31:59.131Z,22.80
2019-04-03T03:33:40.424Z,24.57
2019-04-03T03:35:45.519Z,23.70
2019-04-03T03:37:45.152Z,23.40
2019-04-03T03:39:47.578Z,23.23
2019-04-03T03:41:50.019Z,24.03
2019-04-03T03:43:52.905Z,25.80
2019-04-03T03:45:55.194Z,22.30
2019-04-03T03:47:59.281Z,25.40
2019-04-03T03:50:01.447Z,24.67
2019-04-03T03:52:05.392Z,23.53
2019-04-03T03:54:07.811Z,24.10
2019-04-03T03:56:10.018Z,25.47
2019-04-03T03:58:13.378Z,24.27
2019-04-03T04:00:16.061Z,24.80
2019-04-03T04:02:18.080Z,24.73
2019-04-03T04:04:19.974Z,25.60
2019-04-03T04:06:21.678Z,24.67
2019-04-03T04:08:23.478Z,23.67
2019-04-03T04:10:27.502Z,23.60
2019-04-03T04:12:29.706Z,23.63
2019-04-03T04:14:31.840Z,23.13
2019-04-03T04:16:37.113Z,22.83
2019-04-03T04:18:38.205Z,25.47
2019-04-03T04:20:40.451Z,24.40
2019-04-03T04:22:42.366Z,23.90
2019-04-03T04:24:44.062Z,24.83
2019-04-03T04:26:45.778Z,24.00
2019-04-03T04:28:48.240Z,23.60
2019-04-03T04:30:50.569Z,25.37
2019-04-03T04:32:52.285Z,24.97
2019-04-03T04:34:53.989Z,24.20
2019-04-03T04:36:56.115Z,23.67
2019-04-03T04:38:58.498Z,24.07
2019-04-03T04:41:01.868Z,23.70
2019-04-03T04:43:04.391Z,24.53
2019-04-03T04:45:07.685Z,24.87
2019-04-03T04:47:09.388Z,22.70
2019-04-03T04:49:11.113Z,25.03
2019-04-03T04:51:12.811Z,24.57
2019-04-03T04:53:14.524Z,24.97
2019-04-03T04:55:16.341Z,25.60
2019-04-03T04:57:18.049Z,25.00
2019-04-03T04:59:19.756Z,25.23
2019-04-03T05:01:21.458Z,24.80
2019-04-03T05:03:23.156Z,25.47
2019-04-03T05:05:26.804Z,25.10
2019-04-03T05:07:30.622Z,25.13
2019-04-03T05:09:34.359Z,23.70
2019-04-03T05:11:36.851Z,22.83
2019-04-03T05:13:39.511Z,23.47
2019-04-03T05:15:41.331Z,24.33
2019-04-03T05:17:43.110Z,24.87
2019-04-03T05:19:44.982Z,24.33
2019-04-03T05:21:46.816Z,24.37
2019-04-03T05:23:51.472Z,24.30
2019-04-03T05:25:53.471Z,23.13
2019-04-03T05:27:55.750Z,24.90
2019-04-03T05:29:57.532Z,24.00
2019-04-03T05:31:59.349Z,23.33
2019-04-03T05:34:01.260Z,23.50
2019-04-03T05:36:02.950Z,24.43
2019-04-03T05:38:04.698Z,24.03
2019-04-03T05:40:06.798Z,25.53
2019-04-03T05:42:08.489Z,23.40
2019-04-03T05:44:10.596Z,25.83
2019-04-03T05:46:12.473Z,25.00
2019-04-03T05:48:17.783Z,24.60
2019-04-03T05:50:17.989Z,25.40
2019-04-03T05:52:19.893Z,23.83
2019-04-03T05:54:21.897Z,23.30
2019-04-03T05:56:23.778Z,24.30
2019-04-03T05:58:25.633Z,25.10
2019-04-03T06:00:27.429Z,23.40
2019-04-03T06:02:29.137Z,25.00
2019-04-03T06:04:30.865Z,21.70
2019-04-03T06:06:32.577Z,23.10
2019-04-03T06:08:35.004Z,23.10
2019-04-03T06:10:37.653Z,22.77
2019-04-03T06:12:39.490Z,22.47
2019-04-03T06:14:41.299Z,21.63
2019-04-03T06:16:43.033Z,21.50
2019-04-03T06:18:47.371Z,22.07
2019-04-03T06:20:48.657Z,22.93
2019-04-03T06:22:50.658Z,23.80
2019-04-03T06:24:55.829Z,23.13
2019-04-03T06:26:56.485Z,22.33
2019-04-03T06:28:58.182Z,22.70
2019-04-03T06:31:00.103Z,22.07
2019-04-03T06:33:02.275Z,22.90
2019-04-03T06:35:04.172Z,22.87
2019-04-03T06:37:05.946Z,22.70
2019-04-03T06:39:08.024Z,22.83
2019-04-03T06:41:09.727Z,22.23
2019-04-03T06:43:11.429Z,24.60
2019-04-03T06:45:15.578Z,21.83
2019-04-03T06:47:17.163Z,22.40
2019-04-03T06:49:19.030Z,21.23
2019-04-03T06:51:20.734Z,22.23
2019-04-03T06:53:25.769Z,23.13
2019-04-03T06:55:26.158Z,21.20
2019-04-03T06:57:27.857Z,21.80
2019-04-03T06:59:29.545Z,21.07
2019-04-03T07:01:31.234Z,22.07
2019-04-03T07:03:34.316Z,21.57
2019-04-03T07:05:36.731Z,23.93
2019-04-03T07:07:38.525Z,22.03
2019-04-03T07:09:40.263Z,22.63
2019-04-03T07:11:43.250Z,23.20
2019-04-03T07:13:45.834Z,22.60
2019-04-03T07:15:47.941Z,21.10
2019-04-03T07:17:49.624Z,22.10
2019-04-03T07:19:51.312Z,21.70
2019-04-03T07:21:55.173Z,21.30
2019-04-03T07:23:56.657Z,22.00
2019-04-03T07:25:58.353Z,22.23
2019-04-03T07:28:00.409Z,21.50
2019-04-03T07:30:02.688Z,22.00
2019-04-03T07:32:04.517Z,22.17
2019-04-03T07:34:06.776Z,21.73
2019-04-03T07:36:08.786Z,21.47
2019-04-03T07:38:12.388Z,23.23
2019-04-03T07:40:14.569Z,22.07
2019-04-03T07:42:16.596Z,21.70
2019-04-03T07:44:18.295Z,21.27
2019-04-03T07:46:19.989Z,21.90
2019-04-03T07:48:21.863Z,21.20
2019-04-03T07:50:23.724Z,20.70
2019-04-03T07:52:25.432Z,22.00
2019-04-03T07:54:27.341Z,20.73
2019-04-03T07:56:29.144Z,22.23
2019-04-03T07:58:32.083Z,19.90
2019-04-03T08:00:34.434Z,25.30
2019-04-03T08:02:36.401Z,26.53
2019-04-03T08:04:38.105Z,19.17
2019-04-03T08:06:39.814Z,20.97
2019-04-03T08:08:41.712Z,19.97
2019-04-03T08:10:43.649Z,20.43
2019-04-03T08:12:45.490Z,19.30
2019-04-03T08:14:47.285Z,20.87
2019-04-03T08:16:48.995Z,20.20
2019-04-03T08:18:51.748Z,19.17
2019-04-03T08:20:56.283Z,18.50
2019-04-03T08:22:58.532Z,19.73
2019-04-03T08:25:00.752Z,19.37
2019-04-03T08:27:03.176Z,18.67
2019-04-03T08:29:05.081Z,18.23
2019-04-03T08:31:07.050Z,20.50
2019-04-03T08:33:15.969Z,19.33
2019-04-03T08:35:21.714Z,17.23
2019-04-03T08:37:28.421Z,17.60
2019-04-03T08:39:21.392Z,16.93
2019-04-03T08:41:24.188Z,17.17
2019-04-03T08:43:27.235Z,17.20
2019-04-03T08:45:29.016Z,18.93
2019-04-03T08:47:30.908Z,18.53
2019-04-03T08:49:32.721Z,18.10
2019-04-03T08:51:34.977Z,18.07
2019-04-03T08:53:39.311Z,17.47
2019-04-03T08:55:40.868Z,18.67
2019-04-03T08:57:45.353Z,18.23
2019-04-03T08:59:47.298Z,18.17
2019-04-03T09:01:49.168Z,19.20
2019-04-03T09:03:50.898Z,18.60
2019-04-03T09:05:55.671Z,16.97
2019-04-03T09:07:56.892Z,19.10
2019-04-03T09:10:00.976Z,19.40
2019-04-03T09:12:02.408Z,18.40
2019-04-03T09:14:04.648Z,17.57
2019-04-03T09:16:07.056Z,17.03
2019-04-03T09:18:10.145Z,18.23
2019-04-03T09:20:13.502Z,19.17
2019-04-03T09:22:15.951Z,18.30
2019-04-03T09:24:17.649Z,18.10
2019-04-03T09:26:19.526Z,18.13
2019-04-03T09:28:21.684Z,17.60
2019-04-03T09:30:23.798Z,18.00
2019-04-03T09:32:25.741Z,19.47
2019-04-03T09:34:29.726Z,18.47
2019-04-03T09:36:31.099Z,17.80
2019-04-03T09:38:35.301Z,17.90
2019-04-03T09:40:36.402Z,18.20
2019-04-03T09:42:38.348Z,19.70
2019-04-03T09:44:40.063Z,17.80
2019-04-03T09:46:44.470Z,19.20
2019-04-03T09:48:46.087Z,19.97
2019-04-03T09:50:47.793Z,21.43
2019-04-03T09:52:50.692Z,22.47
2019-04-03T09:54:52.854Z,22.37
2019-04-03T09:57:01.650Z,21.73
2019-04-03T09:58:58.190Z,24.50
2019-04-03T10:01:00.726Z,23.67
2019-04-03T10:03:05.364Z,24.70
2019-04-03T10:05:06.906Z,25.30
2019-04-03T10:07:08.590Z,25.13
2019-04-03T10:09:12.111Z,24.87
2019-04-03T10:11:15.528Z,25.97
2019-04-03T10:13:17.966Z,25.17
2019-04-03T10:15:20.324Z,25.20
2019-04-03T10:17:22.057Z,28.93
2019-04-03T10:19:23.845Z,26.93
2019-04-03T10:21:25.545Z,27.80
2019-04-03T10:23:29.109Z,28.63
2019-04-03T10:25:31.048Z,26.30
2019-04-03T10:27:32.760Z,26.63
2019-04-03T10:29:34.685Z,28.60
2019-04-03T10:31:36.489Z,29.10
2019-04-03T10:33:38.507Z,25.63
2019-04-03T10:35:40.502Z,26.37
2019-04-03T10:37:45.271Z,28.10
2019-04-03T10:39:46.329Z,26.30
2019-04-03T10:41:48.394Z,27.70
2019-04-03T10:43:50.199Z,30.50
2019-04-03T10:45:51.892Z,27.67
2019-04-03T10:47:55.705Z,27.10
2019-04-03T10:49:57.450Z,25.33
2019-04-03T10:51:59.470Z,26.90
2019-04-03T10:54:01.874Z,24.47
2019-04-03T10:56:04.425Z,27.73
2019-04-03T10:58:07.139Z,25.30
2019-04-03T11:00:11.037Z,24.43
2019-04-03T11:02:13.064Z,25.03
2019-04-03T11:04:14.829Z,25.13
2019-04-03T11:06:16.943Z,25.93
2019-04-03T11:08:19.070Z,25.73
2019-04-03T11:10:23.320Z,24.93
2019-04-03T11:12:24.796Z,24.80
2019-04-03T11:14:26.582Z,24.00
2019-04-03T11:16:28.642Z,24.10
2019-04-03T11:23:36.562Z,25.23
2019-04-03T11:25:26.942Z,22.60
2019-04-03T11:27:40.661Z,26.43
2019-04-03T11:29:32.245Z,24.33
2019-04-03T11:31:40.974Z,24.10
2019-04-03T11:33:38.147Z,23.87
2019-04-03T11:35:39.849Z,24.17
2019-04-03T11:37:41.570Z,22.37
2019-04-03T11:39:44.093Z,23.33
2019-04-03T11:41:47.804Z,23.57
2019-04-03T11:43:49.897Z,30.70
2019-04-03T11:45:51.772Z,23.00
2019-04-03T11:47:53.748Z,21.20
2019-04-03T11:49:55.603Z,20.27
2019-04-03T11:51:58.947Z,22.13
2019-04-03T11:54:01.776Z,20.87
2019-04-03T11:56:04.271Z,20.83
2019-04-03T11:58:06.234Z,19.27
2019-04-03T12:00:13.696Z,18.67
2019-04-03T12:02:15.501Z,19.23
2019-04-03T12:04:17.449Z,19.50
2019-04-03T12:06:20.219Z,19.80
2019-04-03T12:08:22.945Z,20.60
2019-04-03T12:10:26.074Z,20.97
2019-04-03T12:12:28.370Z,20.83
2019-04-03T12:14:30.144Z,21.60
2019-04-03T12:16:31.892Z,21.13
2019-04-03T12:18:34.317Z,21.60
2019-04-03T12:20:36.433Z,21.27
2019-04-03T12:22:38.551Z,22.70
2019-04-03T12:24:40.505Z,21.77
2019-04-03T12:26:43.590Z,22.63
2019-04-03T12:28:48.324Z,21.97
2019-04-03T12:30:49.753Z,22.13
2019-04-03T12:32:51.593Z,22.17
2019-04-03T12:34:53.313Z,21.70
2019-04-03T12:36:54.997Z,20.33
2019-04-03T12:38:57.215Z,21.50
2019-04-03T12:40:59.281Z,20.77
2019-04-03T12:43:00.985Z,20.87
2019-04-03T12:45:05.307Z,21.27
2019-04-03T12:47:12.144Z,17.67
2019-04-03T12:49:11.398Z,19.63
2019-04-03T12:51:13.376Z,17.80
2019-04-03T12:53:16.469Z,18.57
2019-04-03T12:55:19.847Z,15.70
2019-04-03T12:57:21.669Z,14.60
2019-04-03T12:59:23.739Z,16.60
2019-04-03T13:01:25.686Z,13.93
2019-04-03T13:03:27.789Z,13.97
2019-04-03T13:05:29.752Z,15.10
2019-04-03T13:07:31.602Z,12.70
2019-04-03T13:10:15.534Z,14.20
2019-04-03T13:12:25.884Z,13.03
2019-04-03T13:14:33.511Z,13.37
2019-04-03T13:16:34.097Z,13.23
2019-04-03T13:18:36.209Z,13.70
2019-04-03T13:20:38.195Z,12.70
2019-04-03T13:22:42.080Z,12.80
2019-04-03T13:24:43.821Z,11.20
2019-04-03T13:26:45.876Z,11.33
2019-04-03T13:28:47.971Z,10.63
2019-04-03T13:30:49.852Z,9.43
2019-04-03T13:32:58.365Z,9.87
2019-04-03T13:34:55.344Z,8.57
2019-04-03T13:36:57.369Z,7.80
2019-04-03T13:39:01.242Z,8.70
2019-04-03T13:41:05.179Z,9.03
2019-04-03T13:43:07.212Z,6.87
2019-04-03T13:45:09.463Z,8.40
2019-04-03T13:47:11.577Z,10.03
2019-04-03T13:49:15.175Z,11.50
2019-04-03T13:51:17.140Z,11.70
2019-04-03T13:53:20.522Z,10.97
2019-04-03T13:55:22.750Z,13.80
2019-04-03T13:57:24.821Z,9.90
2019-04-03T13:59:27.200Z,11.47
2019-04-03T14:01:29.052Z,10.53
2019-04-03T14:03:31.030Z,10.67
2019-04-03T14:05:33.650Z,10.17
2019-04-03T14:07:36.283Z,10.87
2019-04-03T14:09:38.312Z,12.30
2019-04-03T14:11:40.063Z,12.67
2019-04-03T14:13:43.623Z,15.00
2019-04-03T14:15:45.631Z,15.07
2019-04-03T14:17:55.452Z,17.30
2019-04-03T14:19:52.697Z,20.80
2019-04-03T14:21:54.752Z,14.90
2019-04-03T14:23:56.836Z,16.30
2019-04-03T14:26:05.668Z,16.33
2019-04-03T14:28:03.425Z,15.13
2019-04-03T14:30:09.776Z,17.03
2019-04-03T14:32:13.577Z,17.60
2019-04-03T14:34:14.471Z,16.43
2019-04-03T14:36:18.489Z,16.10
2019-04-03T14:38:20.038Z,16.80
2019-04-03T14:40:22.792Z,16.07
2019-04-03T14:42:26.406Z,17.57
2019-04-03T14:44:28.322Z,17.67
2019-04-03T14:46:30.317Z,18.93
2019-04-03T14:48:32.116Z,17.30
2019-04-03T14:50:36.505Z,17.80
2019-04-03T14:52:37.653Z,19.13
2019-04-03T14:54:39.348Z,18.10
2019-04-03T14:56:41.217Z,19.30
2019-04-03T14:58:43.073Z,20.17
2019-04-03T15:00:46.758Z,20.50
2019-04-03T15:02:49.138Z,21.07
2019-04-03T15:04:51.221Z,22.00
2019-04-03T15:07:02.062Z,21.70
2019-04-03T15:08:56.879Z,19.80
2019-04-03T15:10:58.722Z,20.77
2019-04-03T15:13:00.572Z,21.47
2019-04-03T15:15:03.660Z,20.23
2019-04-03T15:17:05.912Z,21.70
2019-04-03T15:19:07.765Z,21.70
2019-04-03T15:21:09.932Z,21.50
2019-04-03T15:23:12.123Z,20.40
2019-04-03T15:25:15.443Z,20.10
2019-04-03T15:27:18.055Z,21.27
2019-04-03T15:29:20.306Z,20.47
2019-04-03T15:31:24.378Z,19.83
2019-04-03T15:33:26.158Z,20.23
2019-04-03T15:35:28.066Z,19.87
2019-04-03T15:37:29.825Z,19.17
2019-04-03T15:39:32.298Z,18.90
2019-04-03T15:41:34.922Z,21.13
2019-04-03T15:43:37.141Z,18.03
2019-04-03T15:45:39.989Z,18.87
2019-04-03T15:47:45.372Z,16.97
2019-04-03T15:49:45.496Z,19.40
2019-04-03T15:51:47.185Z,17.20
2019-04-03T15:53:48.933Z,16.93
2019-04-03T15:55:50.643Z,17.63
2019-04-03T15:57:53.256Z,16.33
2019-04-03T15:59:55.749Z,17.37
2019-04-03T16:01:57.554Z,17.70
2019-04-03T16:04:00.057Z,16.47
2019-04-03T16:06:03.940Z,17.17
2019-04-03T16:08:05.932Z,15.60
2019-04-03T16:10:07.747Z,16.73
2019-04-03T16:12:11.601Z,24.33
2019-04-03T16:14:13.699Z,17.77
2019-04-03T16:16:15.519Z,17.87
2019-04-03T16:18:20.015Z,16.63
2019-04-03T16:20:21.369Z,17.50
2019-04-03T16:22:23.888Z,17.13
2019-04-03T16:24:25.865Z,16.00
2019-04-03T16:26:28.147Z,14.60
2019-04-03T16:28:33.368Z,15.33
2019-04-03T16:30:34.160Z,15.10
2019-04-03T16:32:36.609Z,15.47
2019-04-03T16:34:40.811Z,28.83
2019-04-03T16:36:42.456Z,15.33
2019-04-03T16:38:44.696Z,14.50
2019-04-03T16:40:47.338Z,15.67
2019-04-03T16:42:52.384Z,16.17
2019-04-03T16:44:53.237Z,15.03
2019-04-03T16:46:54.992Z,15.60
2019-04-03T16:48:56.996Z,16.03
2019-04-03T16:51:01.587Z,43.83
2019-04-03T16:53:03.827Z,14.60
2019-04-03T16:55:07.101Z,14.83
2019-04-03T16:57:09.144Z,15.53
2019-04-03T16:59:10.890Z,14.50
2019-04-03T17:01:14.334Z,14.30
2019-04-03T17:03:16.342Z,15.00
2019-04-03T17:05:18.504Z,13.63
2019-04-03T17:07:21.767Z,13.80
2019-04-03T17:09:24.078Z,15.20
2019-04-03T17:11:26.244Z,15.23
2019-04-03T17:13:28.069Z,14.93
2019-04-03T17:15:30.336Z,13.40
2019-04-03T17:17:32.733Z,13.43
2019-04-03T17:19:34.961Z,12.37
2019-04-03T17:21:38.768Z,12.53
2019-04-03T17:23:43.321Z,13.27
2019-04-03T17:25:49.055Z,13.30
2019-04-03T17:27:55.027Z,12.73
2019-04-03T17:29:52.316Z,13.27
2019-04-03T17:31:57.507Z,14.30
2019-04-03T17:33:58.101Z,14.60
2019-04-03T17:36:00.056Z,14.43
2019-04-03T17:41:07.001Z,14.50
2019-04-03T17:43:09.106Z,13.23
2019-04-03T17:45:16.228Z,13.80
2019-04-03T17:47:23.481Z,14.70
2019-04-03T17:49:30.587Z,14.00
2019-04-03T17:51:34.467Z,14.33
2019-04-03T17:53:36.745Z,13.80
2019-04-03T17:55:41.279Z,13.77
2019-04-03T17:57:44.853Z,14.57
2019-04-03T17:59:48.868Z,15.57
2019-04-03T18:01:50.617Z,15.23
2019-04-03T18:03:54.293Z,14.17
2019-04-03T18:05:57.000Z,15.27
2019-04-03T18:07:59.772Z,16.07
2019-04-03T18:10:02.046Z,17.20
2019-04-03T18:12:03.941Z,17.10
2019-04-03T18:14:05.665Z,19.40
2019-04-03T18:16:07.493Z,18.10
2019-04-03T18:18:09.449Z,18.63
2019-04-03T18:20:13.441Z,19.03
2019-04-03T18:22:15.502Z,18.23
2019-04-03T18:24:17.228Z,19.13
2019-04-03T18:26:19.057Z,18.10
2019-04-03T18:28:21.170Z,19.17
2019-04-03T18:30:33.614Z,19.83
2019-04-03T18:32:35.587Z,17.90
2019-04-03T18:34:39.645Z,20.60
2019-04-03T18:36:47.654Z,19.60
2019-04-03T18:38:49.612Z,19.10
2019-04-03T18:40:51.390Z,18.80
2019-04-03T18:42:53.473Z,18.33
2019-04-03T18:44:55.942Z,17.93
2019-04-03T18:47:02.200Z,18.60
2019-04-03T18:49:04.234Z,18.20
2019-04-03T18:51:06.578Z,17.00
2019-04-03T18:53:11.640Z,18.10
2019-04-03T18:55:14.613Z,19.10
2019-04-03T18:57:17.103Z,17.40
2019-04-03T18:59:19.330Z,19.30
2019-04-03T19:01:21.324Z,18.43
2019-04-03T19:03:23.202Z,21.10
2019-04-03T19:05:25.021Z,19.40
2019-04-03T19:07:26.770Z,21.17
2019-04-03T19:09:28.828Z,20.70
2019-04-03T19:11:30.644Z,20.50
2019-04-03T19:13:32.430Z,20.07
2019-04-03T19:15:34.495Z,19.97
2019-04-03T19:17:36.206Z,21.27
2019-04-03T19:19:37.935Z,19.47
2019-04-03T19:21:39.736Z,19.63
2019-04-03T19:23:49.730Z,19.60
2019-04-03T19:25:45.479Z,19.93
2019-04-03T19:27:49.664Z,20.13
2019-04-03T19:29:50.829Z,20.07
2019-04-03T19:31:52.639Z,18.73
2019-04-03T19:33:54.443Z,21.60
2019-04-03T19:35:58.396Z,21.30
2019-04-03T19:37:59.940Z,21.33
2019-04-03T19:40:01.917Z,21.27
2019-04-03T19:42:04.126Z,22.13
2019-04-03T19:44:05.868Z,21.73
2019-04-03T19:46:07.820Z,22.33
2019-04-03T19:48:09.677Z,23.50
2019-04-03T19:50:12.206Z,24.23
2019-04-03T19:52:13.986Z,25.73
2019-04-03T19:54:16.751Z,25.93
2019-04-03T19:56:19.013Z,26.33
2019-04-03T19:58:20.749Z,25.63
2019-04-03T20:00:22.567Z,26.87
2019-04-03T20:02:24.525Z,28.90
2019-04-03T20:04:26.383Z,30.20
2019-04-03T20:06:28.089Z,29.03
2019-04-03T20:08:30.540Z,31.83
2019-04-03T20:10:33.807Z,31.67
2019-04-03T20:12:37.754Z,29.80
2019-04-03T20:14:42.212Z,30.87
2019-04-03T20:16:43.397Z,30.40
2019-04-03T20:18:45.109Z,31.77
2019-04-03T20:20:46.877Z,31.40
2019-04-03T20:22:48.916Z,32.03
2019-04-03T20:24:59.980Z,32.00
2019-04-03T20:26:54.237Z,30.60
2019-04-03T20:28:57.387Z,32.40
2019-04-03T20:30:59.312Z,34.03
2019-04-03T20:33:01.028Z,31.57
2019-04-03T20:35:03.773Z,32.63
2019-04-03T20:37:07.671Z,32.03
2019-04-03T20:39:09.666Z,31.10
2019-04-03T20:41:11.384Z,30.03
2019-04-03T20:43:13.110Z,32.33
2019-04-03T20:45:14.828Z,32.23
2019-04-03T20:47:16.590Z,35.13
2019-04-03T20:49:18.577Z,31.97
2019-04-03T20:51:20.505Z,30.17
2019-04-03T20:53:22.238Z,33.50
2019-04-03T20:55:25.418Z,28.70
2019-04-03T20:57:27.386Z,31.57
2019-04-03T20:59:30.210Z,28.83
2019-04-03T21:01:32.146Z,29.87
2019-04-03T21:03:33.871Z,31.07
2019-04-03T21:05:35.592Z,32.57
2019-04-03T21:07:37.400Z,30.63
2019-04-03T21:09:39.136Z,31.20
2019-04-03T21:11:40.854Z,33.57
2019-04-03T21:13:42.709Z,32.33
2019-04-03T21:15:45.587Z,35.07
2019-04-03T21:17:49.738Z,36.87
2019-04-03T21:19:52.223Z,36.70
2019-04-03T21:21:54.565Z,36.30
2019-04-03T21:23:56.376Z,36.13
2019-04-03T21:25:58.355Z,35.47
2019-04-03T21:28:00.065Z,38.57
2019-04-03T21:30:01.981Z,35.00
2019-04-03T21:32:03.709Z,36.60
2019-04-03T21:34:05.519Z,38.13
2019-04-03T21:36:07.656Z,37.90
2019-04-03T21:38:10.954Z,36.90
2019-04-03T21:40:15.270Z,37.90
2019-04-03T21:42:16.924Z,36.47
2019-04-03T21:44:18.728Z,37.80
2019-04-03T21:46:20.457Z,40.90
2019-04-03T21:48:24.700Z,38.77
2019-04-03T21:50:26.410Z,37.47
2019-04-03T21:52:28.132Z,38.77
2019-04-03T21:54:29.865Z,38.20
2019-04-03T21:56:32.692Z,40.10
2019-04-03T21:58:35.086Z,38.00
2019-04-03T22:01:14.826Z,41.17
2019-04-03T22:03:19.408Z,39.77
2019-04-03T22:05:20.675Z,39.80
2019-04-03T22:07:22.413Z,39.83
2019-04-03T22:09:24.102Z,40.87
2019-04-03T22:11:25.801Z,40.07
2019-04-03T22:13:27.628Z,40.47
2019-04-03T22:15:29.354Z,39.83
2019-04-03T22:17:31.073Z,39.97
2019-04-03T22:19:32.772Z,40.60
2019-04-03T22:21:34.880Z,38.07
2019-04-03T22:23:36.599Z,41.30
2019-04-03T22:25:39.508Z,42.00
2019-04-03T22:27:42.709Z,39.77
2019-04-03T22:29:45.144Z,41.80
2019-04-03T22:31:47.148Z,40.93
2019-04-03T22:33:49.030Z,39.00
2019-04-03T22:35:50.829Z,38.53
2019-04-03T22:37:52.542Z,39.13
2019-04-03T22:39:54.253Z,39.57
2019-04-03T22:41:55.992Z,37.27
2019-04-03T22:43:57.705Z,40.17
2019-04-03T22:45:59.851Z,38.20
2019-04-03T22:48:01.578Z,40.50
2019-04-03T22:50:05.564Z,40.67
2019-04-03T22:52:08.895Z,38.10
2019-04-03T22:54:12.777Z,40.87
2019-04-03T22:56:16.853Z,38.90
2019-04-03T22:58:19.004Z,38.90
2019-04-03T23:00:25.489Z,40.17
2019-04-03T23:02:26.476Z,40.67
2019-04-03T23:04:28.462Z,42.70
2019-04-03T23:06:30.284Z,40.20
2019-04-03T23:08:32.200Z,40.43
2019-04-03T23:10:34.295Z,41.17
2019-04-03T23:12:36.083Z,40.90
2019-04-03T23:14:57.559Z,38.70
2019-04-03T23:16:59.270Z,39.90
2019-04-03T23:19:00.993Z,43.80
2019-04-03T23:21:02.717Z,42.57
2019-04-03T23:23:04.408Z,40.90
2019-04-03T23:25:06.708Z,42.13
2019-04-03T23:27:08.419Z,40.43
2019-04-03T23:29:10.468Z,43.47
2019-04-03T23:31:13.073Z,41.90
2019-04-03T23:33:16.937Z,40.63
2019-04-03T23:35:20.564Z,40.60
2019-04-03T23:37:24.644Z,41.10
2019-04-03T23:39:27.935Z,41.60
2019-04-03T23:41:30.120Z,62.00
2019-04-03T23:43:31.864Z,40.80
2019-04-03T23:45:33.688Z,39.57
2019-04-03T23:47:35.502Z,44.13
2019-04-03T23:49:37.314Z,50.50
2019-04-03T23:51:39.012Z,47.90
2019-04-03T23:53:40.738Z,43.20
2019-04-03T23:55:42.634Z,50.13
2019-04-03T23:57:44.358Z,51.23
2019-04-03T23:59:46.060Z,50.23
